Terminal Aerodrome Forecast
Issued by NWS Tulsa, OK

Home | Current Version | Previous Version | Text Only | Print | Product List | Glossary On
Versions: 1 2 3 4 5 6 7 8 9 10 11 12 13 14 15 16 17
000
FTUS44 KTSA 201100
TAFTUL
TAF
KTUL 201131Z 2012/2112 10004KT P6SM VCTS BKN050CB
      TEMPO 2012/2014 3SM -TSRA BR BKN040CB
     FM201500 21004KT P6SM BKN050
     FM210000 VRB03KT P6SM SCT250=

USA.gov is the U.S. government's official web portal to all federal, state and local government web resources and services.